createdAt,value
2022-12-24T00:01:38.193Z,12.75
2022-12-24T00:04:06.664Z,13.25
2022-12-24T00:06:35.221Z,14.00
2022-12-24T00:09:04.061Z,17.00
2022-12-24T00:11:32.406Z,16.75
2022-12-24T00:14:00.778Z,16.25
2022-12-24T00:16:29.584Z,17.00
2022-12-24T00:18:58.020Z,15.25
2022-12-24T00:21:26.377Z,15.50
2022-12-24T00:23:54.783Z,16.00
2022-12-24T00:26:23.066Z,18.50
2022-12-24T00:28:51.577Z,17.75
2022-12-24T00:31:20.822Z,19.75
2022-12-24T00:33:49.756Z,23.25
2022-12-24T00:36:19.045Z,21.00
2022-12-24T00:38:47.870Z,19.00
2022-12-24T00:41:26.141Z,19.25
2022-12-24T00:44:03.666Z,19.50
2022-12-24T00:46:33.481Z,20.00
2022-12-24T00:49:02.662Z,19.00
2022-12-24T00:51:31.337Z,18.50
2022-12-24T00:54:00.483Z,18.00
2022-12-24T00:56:28.902Z,18.00
2022-12-24T00:58:57.546Z,18.25
2022-12-24T01:01:27.271Z,15.00
2022-12-24T01:04:18.771Z,16.50
2022-12-24T01:06:47.195Z,17.50
2022-12-24T01:09:15.560Z,16.75
2022-12-24T01:11:43.858Z,17.75
2022-12-24T01:14:12.167Z,15.75
2022-12-24T01:16:43.606Z,15.50
2022-12-24T01:19:12.252Z,13.25
2022-12-24T01:21:40.560Z,14.50
2022-12-24T01:24:08.932Z,15.25
2022-12-24T01:26:37.220Z,13.00
2022-12-24T01:29:05.591Z,11.50
2022-12-24T01:31:34.165Z,11.50
2022-12-24T01:34:02.647Z,14.00
2022-12-24T01:36:30.993Z,11.00
2022-12-24T01:38:59.484Z,13.75
2022-12-24T01:41:46.141Z,11.50
2022-12-24T01:44:35.186Z,13.50
2022-12-24T01:47:13.069Z,14.25
2022-12-24T01:49:45.965Z,13.50
2022-12-24T01:52:28.266Z,14.25
2022-12-24T01:55:15.597Z,12.50
2022-12-24T01:57:51.638Z,12.00
2022-12-24T02:00:20.450Z,13.00
2022-12-24T02:02:51.990Z,10.00
2022-12-24T02:05:33.249Z,9.75
2022-12-24T02:08:03.663Z,10.25
2022-12-24T02:10:32.375Z,10.50
2022-12-24T02:13:03.446Z,11.00
2022-12-24T02:15:50.605Z,11.25
2022-12-24T02:18:34.366Z,11.50
2022-12-24T02:21:29.698Z,10.75
2022-12-24T02:24:14.655Z,10.00
2022-12-24T02:26:56.944Z,10.25
2022-12-24T02:29:33.954Z,10.25
2022-12-24T02:32:13.920Z,9.00
2022-12-24T02:35:05.499Z,9.75
2022-12-24T02:37:39.299Z,10.00
2022-12-24T02:40:17.087Z,9.00
2022-12-24T02:42:51.837Z,9.00
2022-12-24T02:45:33.906Z,8.00
2022-12-24T02:48:03.018Z,10.00
2022-12-24T02:50:31.326Z,10.00
2022-12-24T02:52:59.609Z,7.00
2022-12-24T02:55:54.547Z,8.50
2022-12-24T02:58:38.805Z,8.25
2022-12-24T03:01:18.751Z,6.75
2022-12-24T03:03:59.695Z,9.75
2022-12-24T03:06:48.980Z,8.50
2022-12-24T03:09:28.550Z,8.00
2022-12-24T03:12:08.620Z,6.75
2022-12-24T03:14:38.135Z,7.00
2022-12-24T03:17:06.871Z,8.50
2022-12-24T03:19:36.521Z,7.00
2022-12-24T03:22:11.016Z,7.50
2022-12-24T03:24:39.763Z,7.00
2022-12-24T03:27:10.908Z,9.00
2022-12-24T03:29:42.126Z,7.25
2022-12-24T03:32:10.487Z,7.25
2022-12-24T03:34:38.788Z,7.50
2022-12-24T03:37:07.084Z,7.00
2022-12-24T03:39:35.394Z,6.00
2022-12-24T03:42:03.682Z,6.00
2022-12-24T03:44:34.543Z,7.00
2022-12-24T03:47:02.906Z,5.00
2022-12-24T03:49:31.673Z,7.00
2022-12-24T03:51:59.988Z,6.00
2022-12-24T03:54:31.420Z,7.00
2022-12-24T03:56:59.834Z,5.00
2022-12-24T03:59:28.755Z,4.00
2022-12-24T04:02:00.570Z,4.50
2022-12-24T04:04:28.979Z,5.00
2022-12-24T04:06:57.308Z,5.75
2022-12-24T04:09:25.620Z,6.00
2022-12-24T04:11:53.893Z,5.25
2022-12-24T04:14:22.264Z,5.00
2022-12-24T04:16:50.612Z,5.00
2022-12-24T04:19:18.998Z,4.25
2022-12-24T04:21:47.309Z,3.50
2022-12-24T04:24:15.684Z,4.00
2022-12-24T04:26:44.039Z,4.00
2022-12-24T04:29:12.319Z,5.00
2022-12-24T04:31:40.670Z,4.00
2022-12-24T04:34:08.991Z,4.75
2022-12-24T04:36:37.308Z,3.25
2022-12-24T04:39:05.649Z,5.00
2022-12-24T04:41:34.154Z,5.50
2022-12-24T04:44:02.486Z,4.75
2022-12-24T04:46:31.635Z,4.75
2022-12-24T04:49:00.632Z,4.00
2022-12-24T04:51:30.666Z,3.00
2022-12-24T04:53:59.511Z,4.00
2022-12-24T04:56:31.194Z,4.00
2022-12-24T04:59:01.266Z,4.00
2022-12-24T05:01:32.141Z,5.00
2022-12-24T05:04:01.104Z,4.75
2022-12-24T05:06:33.296Z,3.75
2022-12-24T05:09:02.087Z,4.75
2022-12-24T05:11:30.800Z,4.50
2022-12-24T05:13:59.231Z,5.00
2022-12-24T05:16:27.858Z,4.50
2022-12-24T05:18:56.495Z,3.75
2022-12-24T05:21:26.086Z,3.50
2022-12-24T05:24:13.015Z,3.00
2022-12-24T05:26:48.213Z,3.00
2022-12-24T05:29:16.897Z,3.00
2022-12-24T05:31:46.171Z,3.00
2022-12-24T05:34:16.023Z,3.25
2022-12-24T05:36:45.438Z,3.00
2022-12-24T05:39:18.591Z,3.75
2022-12-24T05:41:47.601Z,3.00
2022-12-24T05:44:17.120Z,3.25
2022-12-24T05:46:46.059Z,5.00
2022-12-24T05:49:14.897Z,5.50
2022-12-24T05:51:43.456Z,4.00
2022-12-24T05:54:11.831Z,3.00
2022-12-24T05:56:40.184Z,3.00
2022-12-24T05:59:08.610Z,3.25
2022-12-24T06:01:37.208Z,3.00
2022-12-24T06:04:06.002Z,3.25
2022-12-24T06:06:34.441Z,3.00
2022-12-24T06:09:02.801Z,3.25
2022-12-24T06:11:31.528Z,3.75
2022-12-24T06:13:59.873Z,2.00
2022-12-24T06:16:28.230Z,4.50
2022-12-24T06:18:56.941Z,2.50
2022-12-24T06:21:25.287Z,2.00
2022-12-24T06:23:53.926Z,4.00
2022-12-24T06:26:24.193Z,4.25
2022-12-24T06:28:53.298Z,3.50
2022-12-24T06:31:24.141Z,2.50
2022-12-24T06:33:53.409Z,2.00
2022-12-24T06:36:24.906Z,3.00
2022-12-24T06:38:54.926Z,1.25
2022-12-24T06:41:24.496Z,3.25
2022-12-24T06:43:54.173Z,2.00
2022-12-24T06:46:22.762Z,3.00
2022-12-24T06:48:51.582Z,3.75
2022-12-24T06:51:21.269Z,2.00
2022-12-24T06:53:53.978Z,3.00
2022-12-24T06:56:22.919Z,3.00
2022-12-24T06:58:51.473Z,2.00
2022-12-24T07:01:21.392Z,1.75
2022-12-24T07:03:49.999Z,2.00
2022-12-24T07:06:30.651Z,4.75
2022-12-24T07:08:59.046Z,2.00
2022-12-24T07:11:27.837Z,2.50
2022-12-24T07:13:56.100Z,2.00
2022-12-24T07:16:24.607Z,2.00
2022-12-24T07:18:52.979Z,3.00
2022-12-24T07:21:24.392Z,3.00
2022-12-24T07:23:52.677Z,3.75
2022-12-24T07:26:21.129Z,2.50
2022-12-24T07:28:49.793Z,1.50
2022-12-24T07:31:18.196Z,2.00
2022-12-24T07:33:46.527Z,1.50
2022-12-24T07:36:21.762Z,2.00
2022-12-24T07:38:50.655Z,1.00
2022-12-24T07:41:19.016Z,3.00
2022-12-24T07:43:47.608Z,3.00
2022-12-24T07:46:16.157Z,2.25
2022-12-24T07:48:44.503Z,3.00
2022-12-24T07:51:12.799Z,2.00
2022-12-24T07:53:41.149Z,3.00
2022-12-24T07:56:12.882Z,2.00
2022-12-24T07:58:41.997Z,2.00
2022-12-24T08:01:11.411Z,2.25
2022-12-24T08:03:40.049Z,2.75
2022-12-24T08:06:09.015Z,2.25
2022-12-24T08:08:38.543Z,2.50
2022-12-24T08:11:08.378Z,2.50
2022-12-24T08:13:36.933Z,2.00
2022-12-24T08:16:05.526Z,3.00
2022-12-24T08:18:34.911Z,2.75
2022-12-24T08:21:03.229Z,2.00
2022-12-24T08:23:31.533Z,2.25
2022-12-24T08:25:59.859Z,3.00
2022-12-24T08:28:28.220Z,3.75
2022-12-24T08:30:56.590Z,3.00
2022-12-24T08:33:24.886Z,3.50
2022-12-24T08:35:55.821Z,3.00
2022-12-24T08:38:25.219Z,2.25
2022-12-24T08:40:55.356Z,3.00
2022-12-24T08:43:27.021Z,3.00
2022-12-24T08:45:55.490Z,2.00
2022-12-24T08:48:23.870Z,2.75
2022-12-24T08:50:52.213Z,2.00
2022-12-24T08:53:20.546Z,2.50
2022-12-24T08:55:55.621Z,2.50
2022-12-24T08:58:24.630Z,3.00
2022-12-24T09:00:53.181Z,4.25
2022-12-24T09:03:27.311Z,3.50
2022-12-24T09:05:56.971Z,3.00
2022-12-24T09:08:25.371Z,4.00
2022-12-24T09:10:53.696Z,4.75
2022-12-24T09:13:22.029Z,4.25
2022-12-24T09:15:57.025Z,3.00
2022-12-24T09:18:26.051Z,3.00
2022-12-24T09:21:00.775Z,3.00
2022-12-24T09:23:29.371Z,4.75
2022-12-24T09:25:57.888Z,3.00
2022-12-24T09:28:26.380Z,3.25
2022-12-24T09:31:02.757Z,3.75
2022-12-24T09:33:34.385Z,4.50
2022-12-24T09:36:03.772Z,4.00
2022-12-24T09:38:32.132Z,4.25
2022-12-24T09:41:07.147Z,4.25
2022-12-24T09:43:38.926Z,5.75
2022-12-24T09:46:29.068Z,3.00
2022-12-24T09:49:03.529Z,4.00
2022-12-24T09:51:42.227Z,4.25
2022-12-24T09:54:26.929Z,4.25
2022-12-24T09:56:58.234Z,3.25
2022-12-24T09:59:34.313Z,4.50
2022-12-24T10:02:02.945Z,4.00
2022-12-24T10:04:34.688Z,4.25
2022-12-24T10:07:40.068Z,4.00
2022-12-24T10:10:18.662Z,5.50
2022-12-24T10:12:53.101Z,4.50
2022-12-24T10:15:58.280Z,3.75
2022-12-24T10:18:49.110Z,4.50
2022-12-24T10:21:36.315Z,3.00
2022-12-24T10:24:15.311Z,3.25
2022-12-24T10:27:28.174Z,3.50
2022-12-24T10:30:04.990Z,3.00
2022-12-24T10:32:35.891Z,3.50
2022-12-24T10:35:20.753Z,3.75
2022-12-24T10:37:50.636Z,4.50
2022-12-24T10:40:32.082Z,4.00
2022-12-24T10:43:00.408Z,4.25
2022-12-24T10:45:38.740Z,4.25
2022-12-24T10:48:14.235Z,9.00
2022-12-24T10:50:57.266Z,15.25
2022-12-24T10:53:34.323Z,19.00
2022-12-24T10:56:08.968Z,14.50
2022-12-24T10:58:38.038Z,13.25
2022-12-24T11:01:06.613Z,8.00
2022-12-24T11:03:37.799Z,11.75
2022-12-24T11:06:09.771Z,9.25
2022-12-24T11:08:41.446Z,8.25
2022-12-24T11:11:14.609Z,9.00
2022-12-24T11:13:51.704Z,6.50
2022-12-24T11:16:32.169Z,5.75
2022-12-24T11:19:04.219Z,6.00
2022-12-24T11:21:39.822Z,4.75
2022-12-24T11:24:08.274Z,5.50
2022-12-24T11:26:36.881Z,5.50
2022-12-24T11:29:17.211Z,6.25
2022-12-24T11:31:46.872Z,5.50
2022-12-24T11:34:33.548Z,5.25
2022-12-24T11:37:17.155Z,4.00
2022-12-24T11:39:50.919Z,3.75
2022-12-24T11:42:41.719Z,4.50
2022-12-24T11:45:25.837Z,4.00
2022-12-24T11:47:55.165Z,4.00
2022-12-24T11:50:33.547Z,4.00
2022-12-24T11:53:04.845Z,3.00
2022-12-24T11:55:56.726Z,3.25
2022-12-24T11:58:36.842Z,2.00
2022-12-24T12:01:21.913Z,3.25
2022-12-24T12:03:56.016Z,3.00
2022-12-24T12:06:48.911Z,3.50
2022-12-24T12:09:42.880Z,4.00
2022-12-24T12:12:20.268Z,2.75
2022-12-24T12:14:55.806Z,3.00
2022-12-24T12:18:03.953Z,3.50
2022-12-24T12:21:03.449Z,2.00
2022-12-24T12:23:37.050Z,3.00
2022-12-24T12:26:15.288Z,3.00
2022-12-24T12:28:55.756Z,2.75
2022-12-24T12:31:49.505Z,3.00
2022-12-24T12:34:29.638Z,3.00
2022-12-24T12:37:22.448Z,2.00
2022-12-24T12:39:50.817Z,2.00
2022-12-24T12:42:31.008Z,2.00
2022-12-24T12:45:01.946Z,3.00
2022-12-24T12:47:53.697Z,2.00
2022-12-24T12:50:30.834Z,1.75
2022-12-24T12:53:43.773Z,2.00
2022-12-24T12:56:37.777Z,3.00
2022-12-24T12:59:12.843Z,2.25
2022-12-24T13:02:17.848Z,2.25
2022-12-24T13:05:10.514Z,2.00
2022-12-24T13:08:18.993Z,3.25
2022-12-24T13:10:50.323Z,2.00
2022-12-24T13:13:56.058Z,3.00
2022-12-24T13:16:46.870Z,2.50
2022-12-24T13:19:37.688Z,2.50
2022-12-24T13:22:14.915Z,2.00
2022-12-24T13:24:53.491Z,3.00
2022-12-24T13:27:24.719Z,3.00
2022-12-24T13:30:23.663Z,1.00
2022-12-24T13:32:55.108Z,2.00
2022-12-24T13:35:23.390Z,2.00
2022-12-24T13:37:52.769Z,2.00
2022-12-24T13:40:28.733Z,2.00
2022-12-24T13:42:59.864Z,3.00
2022-12-24T13:45:34.250Z,3.00
2022-12-24T13:48:04.221Z,2.25
2022-12-24T13:50:47.309Z,2.75
2022-12-24T13:53:21.606Z,2.50
2022-12-24T13:56:19.094Z,2.50
2022-12-24T13:58:55.839Z,2.00
2022-12-24T14:01:36.134Z,3.00
2022-12-24T14:04:06.670Z,1.50
2022-12-24T14:06:43.439Z,1.25
2022-12-24T14:09:19.325Z,2.25
2022-12-24T14:12:03.073Z,2.00
2022-12-24T14:14:40.695Z,2.00
2022-12-24T14:17:21.087Z,2.00
2022-12-24T14:20:01.147Z,2.00
2022-12-24T14:22:39.724Z,2.75
2022-12-24T14:25:17.513Z,3.00
2022-12-24T14:27:51.597Z,2.00
2022-12-24T14:30:28.737Z,2.00
2022-12-24T14:32:57.601Z,1.00
2022-12-24T14:35:29.899Z,3.00
2022-12-24T14:38:19.547Z,2.25
2022-12-24T14:41:02.234Z,2.00
2022-12-24T14:43:50.302Z,4.00
2022-12-24T14:46:39.670Z,2.00
2022-12-24T14:49:31.704Z,2.50
2022-12-24T14:53:02.821Z,2.50
2022-12-24T14:55:45.623Z,2.00
2022-12-24T14:58:32.884Z,3.00
2022-12-24T15:01:20.679Z,3.50
2022-12-24T15:04:02.639Z,3.00
2022-12-24T15:06:35.872Z,3.75
2022-12-24T15:09:04.777Z,2.50
2022-12-24T15:11:33.520Z,3.00
2022-12-24T15:14:02.402Z,3.25
2022-12-24T15:16:35.223Z,3.50
2022-12-24T15:19:07.085Z,3.75
2022-12-24T15:21:42.261Z,3.00
2022-12-24T15:24:29.711Z,3.00
2022-12-24T15:26:58.282Z,3.50
2022-12-24T15:29:29.435Z,3.00
2022-12-24T15:32:00.729Z,3.00
2022-12-24T15:34:39.312Z,2.50
2022-12-24T15:37:29.417Z,3.00
2022-12-24T15:40:03.567Z,3.00
2022-12-24T15:42:32.155Z,3.50
2022-12-24T15:45:02.950Z,3.75
2022-12-24T15:47:39.080Z,3.00
2022-12-24T15:50:18.351Z,3.00
2022-12-24T15:52:47.989Z,3.00
2022-12-24T15:55:44.867Z,4.25
2022-12-24T15:58:31.754Z,4.00
2022-12-24T16:01:19.804Z,3.50
2022-12-24T16:03:54.532Z,4.50
2022-12-24T16:06:24.178Z,4.00
2022-12-24T16:08:52.849Z,3.75
2022-12-24T16:11:22.857Z,3.50
2022-12-24T16:14:02.421Z,4.75
2022-12-24T16:16:37.667Z,4.00
2022-12-24T16:19:08.117Z,3.75
2022-12-24T16:21:42.437Z,4.25
2022-12-24T16:24:22.039Z,4.00
2022-12-24T16:26:50.689Z,2.75
2022-12-24T16:29:20.432Z,4.50
2022-12-24T16:31:53.154Z,3.75
2022-12-24T16:34:26.485Z,4.00
2022-12-24T16:36:55.758Z,3.50
2022-12-24T16:39:31.740Z,4.00
2022-12-24T16:42:20.834Z,4.25
2022-12-24T16:44:49.642Z,4.00
2022-12-24T16:47:33.753Z,4.00
2022-12-24T16:50:08.417Z,4.25
2022-12-24T16:52:36.759Z,5.00
2022-12-24T16:55:05.473Z,4.00
2022-12-24T16:57:35.253Z,4.00
2022-12-24T17:00:09.945Z,2.50
2022-12-24T17:02:38.397Z,4.00
2022-12-24T17:05:07.408Z,5.00
2022-12-24T17:07:41.213Z,3.00
2022-12-24T17:10:13.529Z,5.75
2022-12-24T17:12:41.945Z,4.00
2022-12-24T17:15:10.794Z,5.00
2022-12-24T17:17:39.715Z,5.00
2022-12-24T17:20:08.800Z,4.25
2022-12-24T17:22:37.908Z,4.25
2022-12-24T17:25:07.683Z,4.00
2022-12-24T17:27:36.142Z,4.00
2022-12-24T17:30:04.950Z,5.50
2022-12-24T17:32:34.000Z,3.00
2022-12-24T17:35:03.318Z,5.50
2022-12-24T17:37:31.634Z,5.00
2022-12-24T17:39:59.981Z,4.00
2022-12-24T17:42:28.273Z,3.50
2022-12-24T17:44:56.682Z,3.00
2022-12-24T17:47:25.261Z,4.75
2022-12-24T17:49:53.647Z,4.00
2022-12-24T17:52:21.977Z,4.50
2022-12-24T17:54:50.347Z,4.75
2022-12-24T17:57:18.614Z,3.75
2022-12-24T17:59:46.982Z,4.25
2022-12-24T18:02:15.315Z,4.00
2022-12-24T18:04:43.671Z,5.00
2022-12-24T18:07:11.965Z,5.00
2022-12-24T18:09:40.471Z,6.50
2022-12-24T18:12:08.891Z,6.00
2022-12-24T18:14:37.184Z,4.25
2022-12-24T18:17:05.627Z,4.50
2022-12-24T18:19:33.994Z,5.00
2022-12-24T18:22:02.275Z,4.50
2022-12-24T18:24:30.561Z,4.25
2022-12-24T18:26:58.935Z,6.00
2022-12-24T18:29:27.230Z,4.50
2022-12-24T18:31:55.632Z,4.50
2022-12-24T18:34:24.226Z,4.50
2022-12-24T18:39:38.794Z,3.50
2022-12-24T18:44:58.939Z,4.00
2022-12-24T18:47:34.323Z,4.25
2022-12-24T18:55:50.617Z,6.75
2022-12-24T19:12:23.100Z,6.25
2022-12-24T19:15:12.688Z,5.75
2022-12-24T19:17:50.141Z,5.50
2022-12-24T19:20:23.432Z,5.25
2022-12-24T19:22:55.003Z,6.50
2022-12-24T19:25:28.143Z,4.25
2022-12-24T19:28:10.510Z,6.00
2022-12-24T19:31:04.562Z,6.00
2022-12-24T19:33:44.308Z,7.25
2022-12-24T19:39:15.445Z,7.00
2022-12-24T19:44:45.482Z,4.75
2022-12-24T19:47:13.795Z,7.50
2022-12-24T19:49:42.094Z,6.25
2022-12-24T19:52:10.437Z,7.00
2022-12-24T19:54:38.769Z,6.00
2022-12-24T19:57:09.824Z,6.50
2022-12-24T19:59:50.643Z,6.00
2022-12-24T20:02:19.919Z,8.00
2022-12-24T20:04:49.453Z,7.00
2022-12-24T20:07:21.754Z,8.25
2022-12-24T20:10:01.020Z,8.00
2022-12-24T20:12:32.320Z,9.25
2022-12-24T20:17:42.619Z,7.50
2022-12-24T20:20:11.088Z,7.75
2022-12-24T20:22:39.513Z,7.50
2022-12-24T20:25:08.382Z,8.25
2022-12-24T20:27:36.781Z,8.00
2022-12-24T20:30:08.340Z,7.00
2022-12-24T20:35:24.906Z,6.75
2022-12-24T20:40:36.297Z,9.00
2022-12-24T20:45:54.250Z,5.25
2022-12-24T20:51:21.021Z,6.50
2022-12-24T20:54:02.182Z,6.00
2022-12-24T20:56:37.172Z,5.75
2022-12-24T20:59:15.792Z,6.00
2022-12-24T21:04:40.536Z,6.00
2022-12-24T21:07:21.910Z,7.00
2022-12-24T21:09:52.711Z,7.75
2022-12-24T21:12:40.362Z,6.25
2022-12-24T21:15:19.690Z,6.25
2022-12-24T21:18:12.822Z,7.00
2022-12-24T21:23:34.859Z,5.75
2022-12-24T21:26:09.525Z,5.00
2022-12-24T21:31:34.031Z,7.00
2022-12-24T21:36:44.149Z,7.00
2022-12-24T21:39:12.482Z,6.00
2022-12-24T21:41:40.819Z,6.50
2022-12-24T21:44:09.187Z,6.00
2022-12-24T21:46:37.574Z,6.50
2022-12-24T21:49:24.228Z,7.00
2022-12-24T21:51:52.516Z,6.00
2022-12-24T21:54:32.753Z,6.00
2022-12-24T21:57:24.798Z,6.75
2022-12-24T21:59:57.592Z,7.00
2022-12-24T22:02:30.264Z,7.00
2022-12-24T22:04:58.836Z,5.00
2022-12-24T22:07:47.507Z,6.00
2022-12-24T22:10:34.326Z,6.00
2022-12-24T22:13:08.381Z,6.25
2022-12-24T22:15:42.775Z,6.00
2022-12-24T22:18:11.235Z,6.50
2022-12-24T22:20:41.019Z,5.25
2022-12-24T22:23:09.872Z,6.00
2022-12-24T22:25:38.722Z,7.00
2022-12-24T22:28:07.541Z,5.25
2022-12-24T22:30:40.337Z,5.75
2022-12-24T22:33:09.629Z,5.50
2022-12-24T22:35:41.844Z,6.00
2022-12-24T22:38:11.079Z,6.75
2022-12-24T22:40:42.447Z,8.50
2022-12-24T22:43:11.248Z,6.25
2022-12-24T22:45:41.170Z,6.00
2022-12-24T22:48:09.716Z,7.00
2022-12-24T22:50:41.835Z,8.25
2022-12-24T22:53:10.145Z,9.75
2022-12-24T22:55:38.801Z,12.00
2022-12-24T22:58:07.135Z,11.50
2022-12-24T23:00:42.479Z,12.00
2022-12-24T23:03:11.691Z,9.50
2022-12-24T23:05:40.584Z,10.00
2022-12-24T23:08:09.309Z,9.00
2022-12-24T23:10:38.425Z,10.00
2022-12-24T23:13:25.866Z,10.25
2022-12-24T23:15:54.249Z,8.50
2022-12-24T23:18:22.585Z,8.50
2022-12-24T23:20:50.863Z,9.00
2022-12-24T23:23:19.137Z,10.25
2022-12-24T23:25:47.435Z,9.00
2022-12-24T23:28:15.895Z,9.50
2022-12-24T23:30:44.284Z,10.50
2022-12-24T23:33:12.620Z,12.00
2022-12-24T23:35:40.927Z,10.00
2022-12-24T23:38:09.242Z,9.25
2022-12-24T23:40:37.617Z,10.00
2022-12-24T23:43:05.933Z,9.75
2022-12-24T23:45:34.300Z,10.00
2022-12-24T23:48:02.611Z,10.25
2022-12-24T23:50:30.919Z,10.00
2022-12-24T23:52:59.201Z,11.50
2022-12-24T23:55:28.179Z,13.00
2022-12-24T23:57:56.507Z,14.25
